Delta Virtual Airport Information Service

Oakland International Airport

ICAO: KOAK Country: United States
Latitude: 37.7213 Longitude: -122.22
Latest Arrival : SWA3561911 (KLAS-KOAK) Latest Departure : FDX1874 (2A) (KOAK-KLAS)


WX CaptureLIVE
Data provided by noaa.gov | Fetched at 14:32:05

METAR : KOAK 151853Z 27007KT 10SM FEW065 FEW250 31/12 A2990 RMK AO2 SLP124 T03060117

TAF : KOAK 151720Z 1518/1624 29007KT P6SM FEW150 FM152100 30013KT P6SM FEW120 SCT200 FM160400 30008KT P6SM FEW120 SCT200 FM160900 29007KT P6SM SCT100 BKN200 FM162100 30014KT P6SM FEW100 SCT200


Runway Data for KOAK
Data provided by openaviationdata.com

Runway ID Mag Var Hdg Length Elevation Surface ILS Freq ILS Id ILS Slope
09L 16 96° 5447 ft 6 ft Asphalt -- -- --
09R 16 96° 6206 ft 6 ft Asphalt -- -- --
11 16 114° 9998 ft 6 ft Asphalt 111.9 IAAZ 2
15 16 148° 3369 ft 6 ft Asphalt -- -- --
27L 16 276° 6206 ft 6 ft Asphalt -- -- --
27R 16 276° 5447 ft 6 ft Asphalt 109.9 IOAK 2
29 16 294° 9998 ft 6 ft Asphalt 108.7 IINB 3
33 16 328° 3369 ft 6 ft Asphalt -- -- --

Oakland International Airport, United States
Use only for reference purposes



Not for navigational purposes.